sensor_id;sensor_type;location;lat;lon;timestamp;P1;durP1;ratioP1;P2;durP2;ratioP2
36995;SDS011;22905;50.340;10.776;2022-10-16T00:02:35;4.07;;;1.83;;
36995;SDS011;22905;50.340;10.776;2022-10-16T00:07:35;1.70;;;1.60;;
36995;SDS011;22905;50.340;10.776;2022-10-16T00:12:35;2.43;;;1.60;;
36995;SDS011;22905;50.340;10.776;2022-10-16T00:17:36;4.05;;;1.58;;
36995;SDS011;22905;50.340;10.776;2022-10-16T00:22:36;5.15;;;2.65;;
36995;SDS011;22905;50.340;10.776;2022-10-16T00:27:36;2.90;;;1.73;;
36995;SDS011;22905;50.340;10.776;2022-10-16T00:32:36;2.47;;;1.80;;
36995;SDS011;22905;50.340;10.776;2022-10-16T00:37:37;3.17;;;1.65;;
36995;SDS011;22905;50.340;10.776;2022-10-16T00:42:37;2.15;;;1.77;;
36995;SDS011;22905;50.340;10.776;2022-10-16T00:47:42;4.07;;;1.60;;
36995;SDS011;22905;50.340;10.776;2022-10-16T00:52:49;4.88;;;1.63;;
36995;SDS011;22905;50.340;10.776;2022-10-16T00:57:50;3.00;;;1.30;;
36995;SDS011;22905;50.340;10.776;2022-10-16T01:02:52;6.78;;;1.85;;
36995;SDS011;22905;50.340;10.776;2022-10-16T01:07:56;5.22;;;1.15;;
36995;SDS011;22905;50.340;10.776;2022-10-16T01:13:05;1.83;;;1.20;;
36995;SDS011;22905;50.340;10.776;2022-10-16T01:28:34;7.43;;;1.52;;
36995;SDS011;22905;50.340;10.776;2022-10-16T01:33:40;2.83;;;1.27;;
36995;SDS011;22905;50.340;10.776;2022-10-16T01:38:43;6.72;;;2.03;;
36995;SDS011;22905;50.340;10.776;2022-10-16T01:43:49;4.40;;;1.23;;
36995;SDS011;22905;50.340;10.776;2022-10-16T01:54:50;3.90;;;1.50;;
36995;SDS011;22905;50.340;10.776;2022-10-16T01:59:54;5.32;;;1.92;;
36995;SDS011;22905;50.340;10.776;2022-10-16T02:05:05;3.22;;;1.70;;
36995;SDS011;22905;50.340;10.776;2022-10-16T02:10:10;1.85;;;1.65;;
36995;SDS011;22905;50.340;10.776;2022-10-16T02:15:11;2.42;;;1.70;;
36995;SDS011;22905;50.340;10.776;2022-10-16T02:20:11;12.27;;;1.97;;
36995;SDS011;22905;50.340;10.776;2022-10-16T02:25:17;1.55;;;1.45;;
36995;SDS011;22905;50.340;10.776;2022-10-16T02:36:04;1.73;;;1.60;;
36995;SDS011;22905;50.340;10.776;2022-10-16T02:41:05;4.22;;;2.00;;
36995;SDS011;22905;50.340;10.776;2022-10-16T02:46:06;3.17;;;1.60;;
36995;SDS011;22905;50.340;10.776;2022-10-16T02:51:06;6.10;;;1.77;;
36995;SDS011;22905;50.340;10.776;2022-10-16T02:56:06;3.43;;;2.00;;
36995;SDS011;22905;50.340;10.776;2022-10-16T03:01:07;2.08;;;1.48;;
36995;SDS011;22905;50.340;10.776;2022-10-16T03:06:07;2.13;;;1.25;;
36995;SDS011;22905;50.340;10.776;2022-10-16T03:11:08;1.40;;;1.30;;
36995;SDS011;22905;50.340;10.776;2022-10-16T03:16:08;1.40;;;1.23;;
36995;SDS011;22905;50.340;10.776;2022-10-16T03:21:09;1.67;;;1.47;;
36995;SDS011;22905;50.340;10.776;2022-10-16T03:26:09;1.75;;;1.65;;
36995;SDS011;22905;50.340;10.776;2022-10-16T03:31:09;3.35;;;2.28;;
36995;SDS011;22905;50.340;10.776;2022-10-16T03:36:09;6.40;;;3.00;;
36995;SDS011;22905;50.340;10.776;2022-10-16T03:41:10;6.35;;;2.95;;
36995;SDS011;22905;50.340;10.776;2022-10-16T03:46:10;2.60;;;1.70;;
36995;SDS011;22905;50.340;10.776;2022-10-16T03:51:10;2.13;;;1.33;;
36995;SDS011;22905;50.340;10.776;2022-10-16T03:56:11;1.45;;;1.27;;
36995;SDS011;22905;50.340;10.776;2022-10-16T04:01:11;1.30;;;1.20;;
36995;SDS011;22905;50.340;10.776;2022-10-16T04:06:11;5.37;;;1.53;;
36995;SDS011;22905;50.340;10.776;2022-10-16T04:11:11;3.63;;;1.17;;
36995;SDS011;22905;50.340;10.776;2022-10-16T04:16:12;2.60;;;1.00;;
36995;SDS011;22905;50.340;10.776;2022-10-16T04:21:12;1.40;;;0.80;;
36995;SDS011;22905;50.340;10.776;2022-10-16T04:26:13;1.27;;;0.90;;
36995;SDS011;22905;50.340;10.776;2022-10-16T04:31:13;0.83;;;0.80;;
36995;SDS011;22905;50.340;10.776;2022-10-16T04:36:14;4.78;;;0.95;;
36995;SDS011;22905;50.340;10.776;2022-10-16T04:41:14;1.63;;;0.75;;
36995;SDS011;22905;50.340;10.776;2022-10-16T04:46:14;2.45;;;0.93;;
36995;SDS011;22905;50.340;10.776;2022-10-16T04:51:15;1.73;;;0.90;;
36995;SDS011;22905;50.340;10.776;2022-10-16T04:56:15;1.95;;;1.55;;
36995;SDS011;22905;50.340;10.776;2022-10-16T05:01:15;2.47;;;1.03;;
36995;SDS011;22905;50.340;10.776;2022-10-16T05:06:16;1.30;;;1.20;;
36995;SDS011;22905;50.340;10.776;2022-10-16T05:11:16;1.20;;;1.10;;
36995;SDS011;22905;50.340;10.776;2022-10-16T05:16:16;14.38;;;9.45;;
36995;SDS011;22905;50.340;10.776;2022-10-16T05:21:17;3.05;;;2.60;;
36995;SDS011;22905;50.340;10.776;2022-10-16T05:26:17;2.73;;;2.50;;
36995;SDS011;22905;50.340;10.776;2022-10-16T05:31:17;2.53;;;1.63;;
36995;SDS011;22905;50.340;10.776;2022-10-16T05:36:18;3.00;;;1.27;;
36995;SDS011;22905;50.340;10.776;2022-10-16T05:41:18;3.42;;;2.17;;
36995;SDS011;22905;50.340;10.776;2022-10-16T05:46:23;10.23;;;4.78;;
36995;SDS011;22905;50.340;10.776;2022-10-16T05:51:23;9.47;;;6.27;;
36995;SDS011;22905;50.340;10.776;2022-10-16T05:56:24;8.37;;;5.17;;
36995;SDS011;22905;50.340;10.776;2022-10-16T06:01:24;6.93;;;4.65;;
36995;SDS011;22905;50.340;10.776;2022-10-16T06:06:25;4.65;;;3.58;;
36995;SDS011;22905;50.340;10.776;2022-10-16T06:11:28;3.85;;;2.67;;
36995;SDS011;22905;50.340;10.776;2022-10-16T06:16:29;2.67;;;2.22;;
36995;SDS011;22905;50.340;10.776;2022-10-16T06:21:30;2.10;;;1.90;;
36995;SDS011;22905;50.340;10.776;2022-10-16T06:26:30;2.20;;;1.80;;
36995;SDS011;22905;50.340;10.776;2022-10-16T06:31:31;5.35;;;2.35;;
36995;SDS011;22905;50.340;10.776;2022-10-16T06:36:33;2.38;;;2.13;;
36995;SDS011;22905;50.340;10.776;2022-10-16T06:41:33;2.47;;;2.27;;
36995;SDS011;22905;50.340;10.776;2022-10-16T06:46:33;3.38;;;3.00;;
36995;SDS011;22905;50.340;10.776;2022-10-16T06:51:34;5.03;;;4.07;;
36995;SDS011;22905;50.340;10.776;2022-10-16T06:56:36;10.00;;;4.40;;
36995;SDS011;22905;50.340;10.776;2022-10-16T07:01:36;6.65;;;4.78;;
36995;SDS011;22905;50.340;10.776;2022-10-16T07:06:37;5.95;;;3.30;;
36995;SDS011;22905;50.340;10.776;2022-10-16T07:11:38;4.60;;;3.92;;
36995;SDS011;22905;50.340;10.776;2022-10-16T07:16:39;5.73;;;4.00;;
36995;SDS011;22905;50.340;10.776;2022-10-16T07:21:39;3.83;;;3.03;;
36995;SDS011;22905;50.340;10.776;2022-10-16T07:26:40;15.80;;;8.40;;
36995;SDS011;22905;50.340;10.776;2022-10-16T07:31:41;14.68;;;6.95;;
36995;SDS011;22905;50.340;10.776;2022-10-16T07:36:41;14.63;;;7.53;;
36995;SDS011;22905;50.340;10.776;2022-10-16T07:41:42;19.67;;;8.73;;
36995;SDS011;22905;50.340;10.776;2022-10-16T07:46:42;9.93;;;5.63;;
36995;SDS011;22905;50.340;10.776;2022-10-16T07:51:42;5.55;;;3.35;;
36995;SDS011;22905;50.340;10.776;2022-10-16T07:56:43;8.25;;;4.40;;
36995;SDS011;22905;50.340;10.776;2022-10-16T08:01:43;3.70;;;2.40;;
36995;SDS011;22905;50.340;10.776;2022-10-16T08:06:43;2.87;;;2.33;;
36995;SDS011;22905;50.340;10.776;2022-10-16T08:11:44;3.83;;;2.30;;
36995;SDS011;22905;50.340;10.776;2022-10-16T08:16:44;7.47;;;3.30;;
36995;SDS011;22905;50.340;10.776;2022-10-16T08:21:46;3.08;;;2.58;;
36995;SDS011;22905;50.340;10.776;2022-10-16T08:26:47;6.35;;;4.22;;
36995;SDS011;22905;50.340;10.776;2022-10-16T08:31:48;13.50;;;5.43;;
36995;SDS011;22905;50.340;10.776;2022-10-16T08:36:48;7.20;;;4.28;;
36995;SDS011;22905;50.340;10.776;2022-10-16T08:47:26;3.17;;;2.28;;
36995;SDS011;22905;50.340;10.776;2022-10-16T08:52:38;6.90;;;3.45;;
36995;SDS011;22905;50.340;10.776;2022-10-16T08:57:40;3.28;;;2.70;;
36995;SDS011;22905;50.340;10.776;2022-10-16T09:02:42;2.88;;;2.17;;
36995;SDS011;22905;50.340;10.776;2022-10-16T09:08:11;3.75;;;1.67;;
36995;SDS011;22905;50.340;10.776;2022-10-16T09:23:57;6.38;;;4.90;;
36995;SDS011;22905;50.340;10.776;2022-10-16T09:28:59;4.00;;;2.10;;
36995;SDS011;22905;50.340;10.776;2022-10-16T09:34:00;3.92;;;1.63;;
36995;SDS011;22905;50.340;10.776;2022-10-16T09:39:06;2.85;;;1.88;;
36995;SDS011;22905;50.340;10.776;2022-10-16T09:44:19;6.80;;;3.60;;
36995;SDS011;22905;50.340;10.776;2022-10-16T09:49:23;8.13;;;2.60;;
36995;SDS011;22905;50.340;10.776;2022-10-16T09:54:25;5.15;;;2.28;;
36995;SDS011;22905;50.340;10.776;2022-10-16T09:59:25;6.73;;;3.47;;
36995;SDS011;22905;50.340;10.776;2022-10-16T10:04:41;7.40;;;2.53;;
36995;SDS011;22905;50.340;10.776;2022-10-16T10:09:48;5.95;;;2.05;;
36995;SDS011;22905;50.340;10.776;2022-10-16T10:14:49;4.10;;;1.90;;
36995;SDS011;22905;50.340;10.776;2022-10-16T10:19:52;1.88;;;1.45;;
36995;SDS011;22905;50.340;10.776;2022-10-16T10:30:44;7.13;;;2.67;;
36995;SDS011;22905;50.340;10.776;2022-10-16T10:35:57;8.75;;;2.78;;
36995;SDS011;22905;50.340;10.776;2022-10-16T10:46:34;68.82;;;41.33;;
36995;SDS011;22905;50.340;10.776;2022-10-16T10:51:40;18.67;;;7.50;;
36995;SDS011;22905;50.340;10.776;2022-10-16T10:56:49;11.63;;;6.43;;
36995;SDS011;22905;50.340;10.776;2022-10-16T11:01:56;7.13;;;3.30;;
36995;SDS011;22905;50.340;10.776;2022-10-16T11:07:04;7.03;;;3.50;;
36995;SDS011;22905;50.340;10.776;2022-10-16T11:12:07;8.43;;;4.00;;
36995;SDS011;22905;50.340;10.776;2022-10-16T11:17:12;9.68;;;4.03;;
36995;SDS011;22905;50.340;10.776;2022-10-16T11:22:17;7.07;;;3.88;;
36995;SDS011;22905;50.340;10.776;2022-10-16T11:27:21;6.22;;;5.57;;
36995;SDS011;22905;50.340;10.776;2022-10-16T11:32:28;6.68;;;3.03;;
36995;SDS011;22905;50.340;10.776;2022-10-16T11:37:36;5.00;;;2.65;;
36995;SDS011;22905;50.340;10.776;2022-10-16T11:42:41;6.70;;;2.17;;
36995;SDS011;22905;50.340;10.776;2022-10-16T11:53:19;3.95;;;2.72;;
36995;SDS011;22905;50.340;10.776;2022-10-16T12:08:59;4.22;;;2.65;;
36995;SDS011;22905;50.340;10.776;2022-10-16T12:19:14;7.35;;;2.13;;
36995;SDS011;22905;50.340;10.776;2022-10-16T12:39:41;12.63;;;7.97;;
36995;SDS011;22905;50.340;10.776;2022-10-16T12:44:42;8.38;;;3.03;;
36995;SDS011;22905;50.340;10.776;2022-10-16T12:49:48;5.80;;;4.00;;
36995;SDS011;22905;50.340;10.776;2022-10-16T12:54:50;3.85;;;1.63;;
36995;SDS011;22905;50.340;10.776;2022-10-16T12:59:56;3.75;;;2.47;;
36995;SDS011;22905;50.340;10.776;2022-10-16T13:10:40;15.05;;;8.20;;
36995;SDS011;22905;50.340;10.776;2022-10-16T13:15:51;8.23;;;4.35;;
36995;SDS011;22905;50.340;10.776;2022-10-16T13:21:00;3.83;;;2.13;;
36995;SDS011;22905;50.340;10.776;2022-10-16T13:26:17;6.63;;;3.00;;
36995;SDS011;22905;50.340;10.776;2022-10-16T13:31:23;5.03;;;2.50;;
36995;SDS011;22905;50.340;10.776;2022-10-16T13:36:25;3.70;;;2.50;;
36995;SDS011;22905;50.340;10.776;2022-10-16T13:41:27;6.43;;;2.10;;
36995;SDS011;22905;50.340;10.776;2022-10-16T13:46:27;2.50;;;1.53;;
36995;SDS011;22905;50.340;10.776;2022-10-16T13:51:30;2.13;;;1.50;;
36995;SDS011;22905;50.340;10.776;2022-10-16T13:56:32;5.30;;;1.40;;
36995;SDS011;22905;50.340;10.776;2022-10-16T14:01:40;6.53;;;4.57;;
36995;SDS011;22905;50.340;10.776;2022-10-16T14:06:43;8.85;;;2.15;;
36995;SDS011;22905;50.340;10.776;2022-10-16T14:11:46;4.47;;;2.65;;
36995;SDS011;22905;50.340;10.776;2022-10-16T14:16:48;3.40;;;2.47;;
36995;SDS011;22905;50.340;10.776;2022-10-16T14:21:52;4.22;;;3.10;;
36995;SDS011;22905;50.340;10.776;2022-10-16T14:26:52;6.53;;;3.00;;
36995;SDS011;22905;50.340;10.776;2022-10-16T14:37:16;8.07;;;2.55;;
36995;SDS011;22905;50.340;10.776;2022-10-16T14:42:24;5.90;;;3.03;;
36995;SDS011;22905;50.340;10.776;2022-10-16T14:47:25;5.65;;;3.13;;
36995;SDS011;22905;50.340;10.776;2022-10-16T14:52:26;4.47;;;2.47;;
36995;SDS011;22905;50.340;10.776;2022-10-16T14:57:27;6.50;;;4.90;;
36995;SDS011;22905;50.340;10.776;2022-10-16T15:02:28;15.35;;;9.73;;
36995;SDS011;22905;50.340;10.776;2022-10-16T15:07:30;8.63;;;6.30;;
36995;SDS011;22905;50.340;10.776;2022-10-16T15:12:30;8.20;;;5.35;;
36995;SDS011;22905;50.340;10.776;2022-10-16T15:17:30;17.95;;;11.15;;
36995;SDS011;22905;50.340;10.776;2022-10-16T15:22:31;16.55;;;7.57;;
36995;SDS011;22905;50.340;10.776;2022-10-16T15:27:31;12.00;;;5.85;;
36995;SDS011;22905;50.340;10.776;2022-10-16T15:32:39;9.98;;;3.70;;
36995;SDS011;22905;50.340;10.776;2022-10-16T15:37:39;9.05;;;4.70;;
36995;SDS011;22905;50.340;10.776;2022-10-16T15:42:40;12.93;;;5.70;;
36995;SDS011;22905;50.340;10.776;2022-10-16T15:47:40;10.60;;;4.93;;
36995;SDS011;22905;50.340;10.776;2022-10-16T15:52:41;7.40;;;4.05;;
36995;SDS011;22905;50.340;10.776;2022-10-16T15:57:42;6.30;;;4.03;;
36995;SDS011;22905;50.340;10.776;2022-10-16T16:02:43;6.78;;;4.65;;
36995;SDS011;22905;50.340;10.776;2022-10-16T16:07:44;10.43;;;5.10;;
36995;SDS011;22905;50.340;10.776;2022-10-16T16:12:46;7.33;;;5.07;;
36995;SDS011;22905;50.340;10.776;2022-10-16T16:17:51;19.23;;;13.43;;
36995;SDS011;22905;50.340;10.776;2022-10-16T16:22:52;26.02;;;15.60;;
36995;SDS011;22905;50.340;10.776;2022-10-16T16:27:52;22.63;;;11.20;;
36995;SDS011;22905;50.340;10.776;2022-10-16T16:32:52;10.45;;;6.55;;
36995;SDS011;22905;50.340;10.776;2022-10-16T16:37:53;11.20;;;5.73;;
36995;SDS011;22905;50.340;10.776;2022-10-16T16:42:53;18.35;;;11.55;;
36995;SDS011;22905;50.340;10.776;2022-10-16T16:47:53;9.13;;;6.30;;
36995;SDS011;22905;50.340;10.776;2022-10-16T16:52:53;9.68;;;5.25;;
36995;SDS011;22905;50.340;10.776;2022-10-16T16:57:54;9.20;;;4.63;;
36995;SDS011;22905;50.340;10.776;2022-10-16T17:02:54;7.50;;;5.00;;
36995;SDS011;22905;50.340;10.776;2022-10-16T17:07:54;7.20;;;5.57;;
36995;SDS011;22905;50.340;10.776;2022-10-16T17:12:55;11.63;;;7.43;;
36995;SDS011;22905;50.340;10.776;2022-10-16T17:17:55;26.95;;;15.00;;
36995;SDS011;22905;50.340;10.776;2022-10-16T17:22:55;50.55;;;30.05;;
36995;SDS011;22905;50.340;10.776;2022-10-16T17:27:56;23.48;;;15.48;;
36995;SDS011;22905;50.340;10.776;2022-10-16T17:32:56;17.55;;;8.60;;
36995;SDS011;22905;50.340;10.776;2022-10-16T17:37:56;15.23;;;9.43;;
36995;SDS011;22905;50.340;10.776;2022-10-16T17:42:57;14.27;;;10.25;;
36995;SDS011;22905;50.340;10.776;2022-10-16T17:47:57;19.30;;;12.68;;
36995;SDS011;22905;50.340;10.776;2022-10-16T17:52:58;19.67;;;12.95;;
36995;SDS011;22905;50.340;10.776;2022-10-16T17:57:58;44.03;;;29.30;;
36995;SDS011;22905;50.340;10.776;2022-10-16T18:02:58;79.97;;;41.88;;
36995;SDS011;22905;50.340;10.776;2022-10-16T18:07:59;141.95;;;67.90;;
36995;SDS011;22905;50.340;10.776;2022-10-16T18:12:59;96.47;;;47.47;;
36995;SDS011;22905;50.340;10.776;2022-10-16T18:18:00;73.00;;;36.20;;
36995;SDS011;22905;50.340;10.776;2022-10-16T18:23:01;49.75;;;24.05;;
36995;SDS011;22905;50.340;10.776;2022-10-16T18:28:01;33.03;;;18.95;;
36995;SDS011;22905;50.340;10.776;2022-10-16T18:33:01;22.03;;;13.23;;
36995;SDS011;22905;50.340;10.776;2022-10-16T18:38:01;16.25;;;11.57;;
36995;SDS011;22905;50.340;10.776;2022-10-16T18:43:02;15.63;;;10.67;;
36995;SDS011;22905;50.340;10.776;2022-10-16T18:48:03;17.27;;;12.10;;
36995;SDS011;22905;50.340;10.776;2022-10-16T18:53:04;22.13;;;12.73;;
36995;SDS011;22905;50.340;10.776;2022-10-16T18:58:04;19.35;;;12.18;;
36995;SDS011;22905;50.340;10.776;2022-10-16T19:03:05;16.95;;;10.32;;
36995;SDS011;22905;50.340;10.776;2022-10-16T19:08:05;15.07;;;10.18;;
36995;SDS011;22905;50.340;10.776;2022-10-16T19:13:06;25.77;;;10.93;;
36995;SDS011;22905;50.340;10.776;2022-10-16T19:18:07;13.48;;;8.68;;
36995;SDS011;22905;50.340;10.776;2022-10-16T19:23:07;12.33;;;8.43;;
36995;SDS011;22905;50.340;10.776;2022-10-16T19:28:07;16.13;;;10.87;;
36995;SDS011;22905;50.340;10.776;2022-10-16T19:33:08;22.63;;;15.17;;
36995;SDS011;22905;50.340;10.776;2022-10-16T19:38:08;22.50;;;14.60;;
36995;SDS011;22905;50.340;10.776;2022-10-16T19:43:08;17.10;;;11.60;;
36995;SDS011;22905;50.340;10.776;2022-10-16T19:48:09;17.23;;;11.43;;
36995;SDS011;22905;50.340;10.776;2022-10-16T19:53:09;20.75;;;12.38;;
36995;SDS011;22905;50.340;10.776;2022-10-16T19:58:09;16.70;;;11.70;;
36995;SDS011;22905;50.340;10.776;2022-10-16T20:03:09;17.13;;;10.80;;
36995;SDS011;22905;50.340;10.776;2022-10-16T20:08:10;16.50;;;10.97;;
36995;SDS011;22905;50.340;10.776;2022-10-16T20:13:10;21.75;;;13.48;;
36995;SDS011;22905;50.340;10.776;2022-10-16T20:18:12;18.42;;;11.10;;
36995;SDS011;22905;50.340;10.776;2022-10-16T20:23:12;17.08;;;11.20;;
36995;SDS011;22905;50.340;10.776;2022-10-16T20:28:14;16.87;;;11.17;;
36995;SDS011;22905;50.340;10.776;2022-10-16T20:33:17;11.13;;;8.73;;
36995;SDS011;22905;50.340;10.776;2022-10-16T20:38:17;15.70;;;8.45;;
36995;SDS011;22905;50.340;10.776;2022-10-16T20:43:18;15.53;;;10.50;;
36995;SDS011;22905;50.340;10.776;2022-10-16T20:48:18;15.37;;;10.33;;
36995;SDS011;22905;50.340;10.776;2022-10-16T20:53:19;19.65;;;10.85;;
36995;SDS011;22905;50.340;10.776;2022-10-16T20:58:19;15.88;;;10.40;;
36995;SDS011;22905;50.340;10.776;2022-10-16T21:03:19;20.23;;;9.38;;
36995;SDS011;22905;50.340;10.776;2022-10-16T21:08:20;48.30;;;27.48;;
36995;SDS011;22905;50.340;10.776;2022-10-16T21:13:20;24.67;;;12.77;;
36995;SDS011;22905;50.340;10.776;2022-10-16T21:18:20;13.50;;;9.30;;
36995;SDS011;22905;50.340;10.776;2022-10-16T21:23:21;20.77;;;9.20;;
36995;SDS011;22905;50.340;10.776;2022-10-16T21:28:21;17.27;;;9.18;;
36995;SDS011;22905;50.340;10.776;2022-10-16T21:33:21;15.40;;;9.93;;
36995;SDS011;22905;50.340;10.776;2022-10-16T21:38:22;13.38;;;9.32;;
36995;SDS011;22905;50.340;10.776;2022-10-16T21:43:22;20.83;;;9.00;;
36995;SDS011;22905;50.340;10.776;2022-10-16T21:48:23;12.47;;;8.77;;
36995;SDS011;22905;50.340;10.776;2022-10-16T21:53:23;11.80;;;7.38;;
36995;SDS011;22905;50.340;10.776;2022-10-16T21:58:23;14.33;;;8.90;;
36995;SDS011;22905;50.340;10.776;2022-10-16T22:03:23;11.37;;;8.20;;
36995;SDS011;22905;50.340;10.776;2022-10-16T22:08:24;12.93;;;8.15;;
36995;SDS011;22905;50.340;10.776;2022-10-16T22:13:24;11.63;;;8.02;;
36995;SDS011;22905;50.340;10.776;2022-10-16T22:18:25;14.68;;;7.40;;
36995;SDS011;22905;50.340;10.776;2022-10-16T22:23:25;18.13;;;8.70;;
36995;SDS011;22905;50.340;10.776;2022-10-16T22:28:25;17.73;;;7.65;;
36995;SDS011;22905;50.340;10.776;2022-10-16T22:33:26;10.37;;;8.30;;
36995;SDS011;22905;50.340;10.776;2022-10-16T22:38:30;12.65;;;7.53;;
36995;SDS011;22905;50.340;10.776;2022-10-16T22:43:33;13.68;;;7.57;;
36995;SDS011;22905;50.340;10.776;2022-10-16T22:48:37;11.45;;;7.43;;
36995;SDS011;22905;50.340;10.776;2022-10-16T22:53:37;10.80;;;7.83;;
36995;SDS011;22905;50.340;10.776;2022-10-16T22:58:37;11.77;;;7.50;;
36995;SDS011;22905;50.340;10.776;2022-10-16T23:03:38;11.50;;;7.60;;
36995;SDS011;22905;50.340;10.776;2022-10-16T23:08:38;10.00;;;6.60;;
36995;SDS011;22905;50.340;10.776;2022-10-16T23:13:39;16.42;;;7.10;;
36995;SDS011;22905;50.340;10.776;2022-10-16T23:18:44;9.88;;;6.68;;
36995;SDS011;22905;50.340;10.776;2022-10-16T23:23:45;12.27;;;7.47;;
36995;SDS011;22905;50.340;10.776;2022-10-16T23:28:45;12.05;;;7.20;;
36995;SDS011;22905;50.340;10.776;2022-10-16T23:33:46;9.73;;;6.27;;
36995;SDS011;22905;50.340;10.776;2022-10-16T23:38:47;10.47;;;6.10;;
36995;SDS011;22905;50.340;10.776;2022-10-16T23:43:47;12.05;;;7.55;;
36995;SDS011;22905;50.340;10.776;2022-10-16T23:48:50;12.02;;;7.57;;
36995;SDS011;22905;50.340;10.776;2022-10-16T23:53:50;8.40;;;6.00;;
36995;SDS011;22905;50.340;10.776;2022-10-16T23:58:51;9.18;;;5.97;;
